sensor_id;sensor_type;location;lat;lon;timestamp;P1;durP1;ratioP1;P2;durP2;ratioP2
34639;SDS011;22600;48.186;11.526;2022-07-29T00:01:20;14.75;;;4.45;;
34639;SDS011;22600;48.186;11.526;2022-07-29T00:03:46;20.88;;;4.60;;
34639;SDS011;22600;48.186;11.526;2022-07-29T00:06:12;12.68;;;4.35;;
34639;SDS011;22600;48.186;11.526;2022-07-29T00:08:37;14.00;;;4.10;;
34639;SDS011;22600;48.186;11.526;2022-07-29T00:11:03;14.55;;;4.50;;
34639;SDS011;22600;48.186;11.526;2022-07-29T00:13:29;10.27;;;4.60;;
34639;SDS011;22600;48.186;11.526;2022-07-29T00:15:54;14.75;;;4.38;;
34639;SDS011;22600;48.186;11.526;2022-07-29T00:18:20;18.30;;;4.30;;
34639;SDS011;22600;48.186;11.526;2022-07-29T00:20:45;16.77;;;4.38;;
34639;SDS011;22600;48.186;11.526;2022-07-29T00:23:11;16.02;;;4.50;;
34639;SDS011;22600;48.186;11.526;2022-07-29T00:25:36;15.73;;;4.57;;
34639;SDS011;22600;48.186;11.526;2022-07-29T00:28:02;15.60;;;4.72;;
34639;SDS011;22600;48.186;11.526;2022-07-29T00:30:27;14.90;;;4.32;;
34639;SDS011;22600;48.186;11.526;2022-07-29T00:32:53;21.48;;;4.82;;
34639;SDS011;22600;48.186;11.526;2022-07-29T00:35:19;15.20;;;4.43;;
34639;SDS011;22600;48.186;11.526;2022-07-29T00:38:03;13.73;;;4.45;;
34639;SDS011;22600;48.186;11.526;2022-07-29T00:40:28;17.90;;;4.47;;
34639;SDS011;22600;48.186;11.526;2022-07-29T00:42:54;13.30;;;4.30;;
34639;SDS011;22600;48.186;11.526;2022-07-29T00:45:21;16.88;;;4.60;;
34639;SDS011;22600;48.186;11.526;2022-07-29T00:47:47;16.80;;;4.10;;
34639;SDS011;22600;48.186;11.526;2022-07-29T00:50:13;17.63;;;4.43;;
34639;SDS011;22600;48.186;11.526;2022-07-29T00:52:40;16.00;;;4.40;;
34639;SDS011;22600;48.186;11.526;2022-07-29T00:55:08;18.83;;;4.47;;
34639;SDS011;22600;48.186;11.526;2022-07-29T00:57:35;21.90;;;4.63;;
34639;SDS011;22600;48.186;11.526;2022-07-29T01:00:06;14.05;;;4.03;;
34639;SDS011;22600;48.186;11.526;2022-07-29T01:02:34;15.43;;;4.28;;
34639;SDS011;22600;48.186;11.526;2022-07-29T01:04:59;11.70;;;4.10;;
34639;SDS011;22600;48.186;11.526;2022-07-29T01:07:27;14.88;;;4.18;;
34639;SDS011;22600;48.186;11.526;2022-07-29T01:09:54;18.17;;;4.70;;
34639;SDS011;22600;48.186;11.526;2022-07-29T01:12:24;15.70;;;3.92;;
34639;SDS011;22600;48.186;11.526;2022-07-29T01:17:35;12.10;;;3.95;;
34639;SDS011;22600;48.186;11.526;2022-07-29T01:25:51;10.82;;;4.13;;
34639;SDS011;22600;48.186;11.526;2022-07-29T01:31:10;13.85;;;4.22;;
34639;SDS011;22600;48.186;11.526;2022-07-29T01:33:41;10.00;;;3.75;;
34639;SDS011;22600;48.186;11.526;2022-07-29T01:36:17;13.63;;;4.00;;
34639;SDS011;22600;48.186;11.526;2022-07-29T01:38:50;14.70;;;4.03;;
34639;SDS011;22600;48.186;11.526;2022-07-29T01:41:22;11.45;;;4.00;;
34639;SDS011;22600;48.186;11.526;2022-07-29T01:43:52;14.95;;;4.05;;
34639;SDS011;22600;48.186;11.526;2022-07-29T01:46:25;13.50;;;4.03;;
34639;SDS011;22600;48.186;11.526;2022-07-29T01:49:30;11.95;;;3.90;;
34639;SDS011;22600;48.186;11.526;2022-07-29T01:51:54;13.95;;;4.00;;
34639;SDS011;22600;48.186;11.526;2022-07-29T01:54:26;9.38;;;3.50;;
34639;SDS011;22600;48.186;11.526;2022-07-29T01:56:57;17.20;;;4.00;;
34639;SDS011;22600;48.186;11.526;2022-07-29T01:59:24;18.00;;;4.25;;
34639;SDS011;22600;48.186;11.526;2022-07-29T02:01:52;14.20;;;3.95;;
34639;SDS011;22600;48.186;11.526;2022-07-29T02:04:19;10.68;;;3.58;;
34639;SDS011;22600;48.186;11.526;2022-07-29T02:06:46;17.58;;;3.70;;
34639;SDS011;22600;48.186;11.526;2022-07-29T02:09:14;10.57;;;3.95;;
34639;SDS011;22600;48.186;11.526;2022-07-29T02:11:40;16.08;;;3.97;;
34639;SDS011;22600;48.186;11.526;2022-07-29T02:14:21;13.85;;;4.00;;
34639;SDS011;22600;48.186;11.526;2022-07-29T02:16:48;15.45;;;4.18;;
34639;SDS011;22600;48.186;11.526;2022-07-29T02:19:17;11.30;;;4.00;;
34639;SDS011;22600;48.186;11.526;2022-07-29T02:21:44;18.60;;;4.80;;
34639;SDS011;22600;48.186;11.526;2022-07-29T02:24:11;17.73;;;4.20;;
34639;SDS011;22600;48.186;11.526;2022-07-29T02:26:39;16.35;;;4.03;;
34639;SDS011;22600;48.186;11.526;2022-07-29T02:29:06;14.68;;;4.03;;
34639;SDS011;22600;48.186;11.526;2022-07-29T02:31:33;13.35;;;3.78;;
34639;SDS011;22600;48.186;11.526;2022-07-29T02:34:05;17.83;;;4.40;;
34639;SDS011;22600;48.186;11.526;2022-07-29T02:36:33;15.07;;;4.07;;
34639;SDS011;22600;48.186;11.526;2022-07-29T02:39:00;20.83;;;4.18;;
34639;SDS011;22600;48.186;11.526;2022-07-29T02:41:47;17.92;;;4.38;;
34639;SDS011;22600;48.186;11.526;2022-07-29T02:44:20;15.52;;;4.38;;
34639;SDS011;22600;48.186;11.526;2022-07-29T02:46:53;12.00;;;4.05;;
34639;SDS011;22600;48.186;11.526;2022-07-29T02:49:29;15.13;;;4.22;;
34639;SDS011;22600;48.186;11.526;2022-07-29T02:52:02;20.83;;;3.97;;
34639;SDS011;22600;48.186;11.526;2022-07-29T02:54:33;13.47;;;3.90;;
34639;SDS011;22600;48.186;11.526;2022-07-29T02:57:04;11.55;;;3.97;;
34639;SDS011;22600;48.186;11.526;2022-07-29T02:59:34;13.57;;;3.83;;
34639;SDS011;22600;48.186;11.526;2022-07-29T03:02:02;17.35;;;3.88;;
34639;SDS011;22600;48.186;11.526;2022-07-29T03:04:30;16.80;;;3.65;;
34639;SDS011;22600;48.186;11.526;2022-07-29T03:06:58;18.95;;;4.40;;
34639;SDS011;22600;48.186;11.526;2022-07-29T03:09:25;25.10;;;4.25;;
34639;SDS011;22600;48.186;11.526;2022-07-29T03:11:52;10.70;;;3.35;;
34639;SDS011;22600;48.186;11.526;2022-07-29T03:14:19;18.25;;;3.60;;
34639;SDS011;22600;48.186;11.526;2022-07-29T03:16:45;5.38;;;2.85;;
34639;SDS011;22600;48.186;11.526;2022-07-29T03:19:11;7.85;;;2.70;;
34639;SDS011;22600;48.186;11.526;2022-07-29T03:21:37;8.82;;;2.60;;
34639;SDS011;22600;48.186;11.526;2022-07-29T03:24:04;5.95;;;2.50;;
34639;SDS011;22600;48.186;11.526;2022-07-29T03:26:29;7.57;;;2.50;;
34639;SDS011;22600;48.186;11.526;2022-07-29T03:28:55;5.55;;;2.80;;
34639;SDS011;22600;48.186;11.526;2022-07-29T03:31:20;6.40;;;2.63;;
34639;SDS011;22600;48.186;11.526;2022-07-29T03:33:46;8.57;;;3.03;;
34639;SDS011;22600;48.186;11.526;2022-07-29T03:36:12;7.95;;;3.20;;
34639;SDS011;22600;48.186;11.526;2022-07-29T03:38:38;6.45;;;3.13;;
34639;SDS011;22600;48.186;11.526;2022-07-29T03:41:07;6.60;;;3.20;;
34639;SDS011;22600;48.186;11.526;2022-07-29T03:43:35;7.88;;;3.20;;
34639;SDS011;22600;48.186;11.526;2022-07-29T03:46:04;3.90;;;2.90;;
34639;SDS011;22600;48.186;11.526;2022-07-29T03:48:32;6.05;;;2.83;;
34639;SDS011;22600;48.186;11.526;2022-07-29T03:51:01;5.70;;;2.55;;
34639;SDS011;22600;48.186;11.526;2022-07-29T03:53:27;5.28;;;2.90;;
34639;SDS011;22600;48.186;11.526;2022-07-29T03:55:55;4.97;;;3.08;;
34639;SDS011;22600;48.186;11.526;2022-07-29T04:00:51;3.22;;;2.60;;
34639;SDS011;22600;48.186;11.526;2022-07-29T04:03:17;4.45;;;3.10;;
34639;SDS011;22600;48.186;11.526;2022-07-29T04:05:43;5.53;;;2.70;;
34639;SDS011;22600;48.186;11.526;2022-07-29T04:08:08;3.78;;;2.47;;
34639;SDS011;22600;48.186;11.526;2022-07-29T04:10:34;3.60;;;2.70;;
34639;SDS011;22600;48.186;11.526;2022-07-29T04:12:59;4.55;;;2.75;;
34639;SDS011;22600;48.186;11.526;2022-07-29T04:15:25;3.75;;;2.60;;
34639;SDS011;22600;48.186;11.526;2022-07-29T04:17:52;4.68;;;2.78;;
34639;SDS011;22600;48.186;11.526;2022-07-29T04:20:17;3.75;;;2.58;;
34639;SDS011;22600;48.186;11.526;2022-07-29T04:22:43;2.90;;;2.60;;
34639;SDS011;22600;48.186;11.526;2022-07-29T04:25:09;5.10;;;2.95;;
34639;SDS011;22600;48.186;11.526;2022-07-29T04:27:34;4.97;;;2.97;;
34639;SDS011;22600;48.186;11.526;2022-07-29T04:30:00;4.38;;;2.80;;
34639;SDS011;22600;48.186;11.526;2022-07-29T04:32:26;4.43;;;2.72;;
34639;SDS011;22600;48.186;11.526;2022-07-29T04:34:52;4.65;;;2.70;;
34639;SDS011;22600;48.186;11.526;2022-07-29T04:37:17;3.97;;;2.70;;
34639;SDS011;22600;48.186;11.526;2022-07-29T04:39:43;5.57;;;2.70;;
34639;SDS011;22600;48.186;11.526;2022-07-29T04:42:09;4.28;;;2.67;;
34639;SDS011;22600;48.186;11.526;2022-07-29T04:44:34;4.22;;;3.00;;
34639;SDS011;22600;48.186;11.526;2022-07-29T04:47:00;5.38;;;2.67;;
34639;SDS011;22600;48.186;11.526;2022-07-29T04:49:25;4.60;;;2.70;;
34639;SDS011;22600;48.186;11.526;2022-07-29T04:51:51;3.45;;;2.70;;
34639;SDS011;22600;48.186;11.526;2022-07-29T04:54:16;4.53;;;2.60;;
34639;SDS011;22600;48.186;11.526;2022-07-29T04:56:42;3.08;;;2.50;;
34639;SDS011;22600;48.186;11.526;2022-07-29T04:59:07;4.57;;;2.67;;
34639;SDS011;22600;48.186;11.526;2022-07-29T05:01:33;3.92;;;2.38;;
34639;SDS011;22600;48.186;11.526;2022-07-29T05:03:59;4.38;;;2.60;;
34639;SDS011;22600;48.186;11.526;2022-07-29T05:06:24;3.88;;;2.70;;
34639;SDS011;22600;48.186;11.526;2022-07-29T05:08:50;4.18;;;2.78;;
34639;SDS011;22600;48.186;11.526;2022-07-29T05:11:15;4.25;;;2.72;;
34639;SDS011;22600;48.186;11.526;2022-07-29T05:13:41;3.38;;;2.45;;
34639;SDS011;22600;48.186;11.526;2022-07-29T05:16:07;5.03;;;2.83;;
34639;SDS011;22600;48.186;11.526;2022-07-29T05:18:33;5.80;;;2.70;;
34639;SDS011;22600;48.186;11.526;2022-07-29T05:20:59;5.07;;;2.80;;
34639;SDS011;22600;48.186;11.526;2022-07-29T05:23:24;4.00;;;2.75;;
34639;SDS011;22600;48.186;11.526;2022-07-29T05:25:50;4.63;;;2.75;;
34639;SDS011;22600;48.186;11.526;2022-07-29T05:28:16;4.65;;;2.63;;
34639;SDS011;22600;48.186;11.526;2022-07-29T05:30:41;2.97;;;2.65;;
34639;SDS011;22600;48.186;11.526;2022-07-29T05:33:09;4.18;;;3.15;;
34639;SDS011;22600;48.186;11.526;2022-07-29T05:35:34;5.82;;;2.88;;
34639;SDS011;22600;48.186;11.526;2022-07-29T05:38:02;4.20;;;2.70;;
34639;SDS011;22600;48.186;11.526;2022-07-29T05:40:28;3.10;;;2.55;;
34639;SDS011;22600;48.186;11.526;2022-07-29T05:42:53;4.32;;;3.00;;
34639;SDS011;22600;48.186;11.526;2022-07-29T05:45:19;5.35;;;3.20;;
34639;SDS011;22600;48.186;11.526;2022-07-29T05:47:45;4.20;;;2.60;;
34639;SDS011;22600;48.186;11.526;2022-07-29T05:50:10;3.75;;;2.75;;
34639;SDS011;22600;48.186;11.526;2022-07-29T05:52:36;3.95;;;2.65;;
34639;SDS011;22600;48.186;11.526;2022-07-29T05:55:01;4.38;;;2.63;;
34639;SDS011;22600;48.186;11.526;2022-07-29T05:57:29;4.97;;;2.65;;
34639;SDS011;22600;48.186;11.526;2022-07-29T05:59:54;5.55;;;3.10;;
34639;SDS011;22600;48.186;11.526;2022-07-29T06:02:20;4.93;;;2.90;;
34639;SDS011;22600;48.186;11.526;2022-07-29T06:04:45;6.28;;;2.92;;
34639;SDS011;22600;48.186;11.526;2022-07-29T06:07:11;6.28;;;2.67;;
34639;SDS011;22600;48.186;11.526;2022-07-29T06:09:36;4.93;;;3.13;;
34639;SDS011;22600;48.186;11.526;2022-07-29T06:12:02;3.58;;;2.80;;
34639;SDS011;22600;48.186;11.526;2022-07-29T06:14:29;5.05;;;3.00;;
34639;SDS011;22600;48.186;11.526;2022-07-29T06:16:54;4.57;;;2.78;;
34639;SDS011;22600;48.186;11.526;2022-07-29T06:19:21;4.60;;;2.92;;
34639;SDS011;22600;48.186;11.526;2022-07-29T06:21:46;4.85;;;2.75;;
34639;SDS011;22600;48.186;11.526;2022-07-29T06:24:13;4.57;;;2.97;;
34639;SDS011;22600;48.186;11.526;2022-07-29T06:26:39;4.10;;;2.88;;
34639;SDS011;22600;48.186;11.526;2022-07-29T06:29:06;4.22;;;2.97;;
34639;SDS011;22600;48.186;11.526;2022-07-29T06:31:32;5.28;;;2.72;;
34639;SDS011;22600;48.186;11.526;2022-07-29T06:33:58;4.60;;;2.80;;
34639;SDS011;22600;48.186;11.526;2022-07-29T06:36:23;3.25;;;2.60;;
34639;SDS011;22600;48.186;11.526;2022-07-29T06:38:49;3.35;;;2.58;;
34639;SDS011;22600;48.186;11.526;2022-07-29T06:41:14;3.10;;;2.58;;
34639;SDS011;22600;48.186;11.526;2022-07-29T06:43:42;4.75;;;2.78;;
34639;SDS011;22600;48.186;11.526;2022-07-29T06:46:09;3.53;;;2.47;;
34639;SDS011;22600;48.186;11.526;2022-07-29T06:48:36;3.85;;;2.70;;
34639;SDS011;22600;48.186;11.526;2022-07-29T06:51:03;6.28;;;2.65;;
34639;SDS011;22600;48.186;11.526;2022-07-29T06:53:30;3.95;;;2.80;;
34639;SDS011;22600;48.186;11.526;2022-07-29T06:55:56;3.60;;;2.63;;
34639;SDS011;22600;48.186;11.526;2022-07-29T06:58:23;4.07;;;2.70;;
34639;SDS011;22600;48.186;11.526;2022-07-29T07:00:49;5.30;;;2.85;;
34639;SDS011;22600;48.186;11.526;2022-07-29T07:03:15;4.85;;;2.55;;
34639;SDS011;22600;48.186;11.526;2022-07-29T07:05:42;3.33;;;2.50;;
34639;SDS011;22600;48.186;11.526;2022-07-29T07:08:08;3.38;;;2.53;;
34639;SDS011;22600;48.186;11.526;2022-07-29T07:10:34;3.55;;;2.38;;
34639;SDS011;22600;48.186;11.526;2022-07-29T07:13:00;4.25;;;2.63;;
34639;SDS011;22600;48.186;11.526;2022-07-29T07:15:26;5.35;;;2.33;;
34639;SDS011;22600;48.186;11.526;2022-07-29T07:17:52;3.55;;;2.72;;
34639;SDS011;22600;48.186;11.526;2022-07-29T07:20:18;5.00;;;2.83;;
34639;SDS011;22600;48.186;11.526;2022-07-29T07:22:43;4.00;;;2.50;;
34639;SDS011;22600;48.186;11.526;2022-07-29T07:25:09;3.22;;;2.67;;
34639;SDS011;22600;48.186;11.526;2022-07-29T07:27:35;5.60;;;2.70;;
34639;SDS011;22600;48.186;11.526;2022-07-29T07:30:02;3.45;;;2.63;;
34639;SDS011;22600;48.186;11.526;2022-07-29T07:32:32;5.28;;;2.83;;
34639;SDS011;22600;48.186;11.526;2022-07-29T07:34:58;4.07;;;2.60;;
34639;SDS011;22600;48.186;11.526;2022-07-29T07:37:24;4.22;;;2.38;;
34639;SDS011;22600;48.186;11.526;2022-07-29T07:39:50;4.22;;;2.50;;
34639;SDS011;22600;48.186;11.526;2022-07-29T07:42:17;3.35;;;2.38;;
34639;SDS011;22600;48.186;11.526;2022-07-29T07:44:42;4.25;;;2.60;;
34639;SDS011;22600;48.186;11.526;2022-07-29T07:47:10;3.42;;;2.40;;
34639;SDS011;22600;48.186;11.526;2022-07-29T07:49:36;3.13;;;2.30;;
34639;SDS011;22600;48.186;11.526;2022-07-29T07:52:02;3.75;;;2.40;;
34639;SDS011;22600;48.186;11.526;2022-07-29T07:54:28;2.83;;;2.50;;
34639;SDS011;22600;48.186;11.526;2022-07-29T07:56:54;3.10;;;2.15;;
34639;SDS011;22600;48.186;11.526;2022-07-29T07:59:19;2.95;;;2.20;;
34639;SDS011;22600;48.186;11.526;2022-07-29T08:01:45;3.03;;;2.25;;
34639;SDS011;22600;48.186;11.526;2022-07-29T08:04:11;3.28;;;2.50;;
34639;SDS011;22600;48.186;11.526;2022-07-29T08:06:36;3.13;;;2.40;;
34639;SDS011;22600;48.186;11.526;2022-07-29T08:09:03;3.53;;;2.28;;
34639;SDS011;22600;48.186;11.526;2022-07-29T08:11:29;3.20;;;2.47;;
34639;SDS011;22600;48.186;11.526;2022-07-29T08:13:54;2.50;;;2.22;;
34639;SDS011;22600;48.186;11.526;2022-07-29T08:16:20;3.50;;;2.40;;
34639;SDS011;22600;48.186;11.526;2022-07-29T08:18:46;3.45;;;2.28;;
34639;SDS011;22600;48.186;11.526;2022-07-29T08:21:13;4.50;;;2.63;;
34639;SDS011;22600;48.186;11.526;2022-07-29T08:23:39;2.83;;;2.22;;
34639;SDS011;22600;48.186;11.526;2022-07-29T08:26:11;6.40;;;2.40;;
34639;SDS011;22600;48.186;11.526;2022-07-29T08:28:38;2.80;;;2.20;;
34639;SDS011;22600;48.186;11.526;2022-07-29T08:31:04;3.22;;;2.20;;
34639;SDS011;22600;48.186;11.526;2022-07-29T08:33:31;3.40;;;2.30;;
34639;SDS011;22600;48.186;11.526;2022-07-29T08:35:57;2.70;;;2.22;;
34639;SDS011;22600;48.186;11.526;2022-07-29T08:38:23;2.78;;;2.20;;
34639;SDS011;22600;48.186;11.526;2022-07-29T08:40:50;4.03;;;2.20;;
34639;SDS011;22600;48.186;11.526;2022-07-29T08:43:17;2.95;;;2.30;;
34639;SDS011;22600;48.186;11.526;2022-07-29T08:45:47;3.53;;;2.00;;
34639;SDS011;22600;48.186;11.526;2022-07-29T08:48:15;2.60;;;1.90;;
34639;SDS011;22600;48.186;11.526;2022-07-29T08:50:44;3.60;;;2.33;;
34639;SDS011;22600;48.186;11.526;2022-07-29T08:53:11;5.07;;;2.15;;
34639;SDS011;22600;48.186;11.526;2022-07-29T08:55:39;2.60;;;2.17;;
34639;SDS011;22600;48.186;11.526;2022-07-29T08:58:07;3.65;;;2.03;;
34639;SDS011;22600;48.186;11.526;2022-07-29T09:00:35;2.83;;;2.08;;
34639;SDS011;22600;48.186;11.526;2022-07-29T09:03:04;2.72;;;2.20;;
34639;SDS011;22600;48.186;11.526;2022-07-29T09:05:31;2.45;;;2.20;;
34639;SDS011;22600;48.186;11.526;2022-07-29T09:07:57;3.00;;;2.15;;
34639;SDS011;22600;48.186;11.526;2022-07-29T09:10:23;2.97;;;2.22;;
34639;SDS011;22600;48.186;11.526;2022-07-29T09:12:49;2.80;;;2.20;;
34639;SDS011;22600;48.186;11.526;2022-07-29T09:15:15;3.35;;;2.38;;
34639;SDS011;22600;48.186;11.526;2022-07-29T09:17:44;3.17;;;2.38;;
34639;SDS011;22600;48.186;11.526;2022-07-29T09:20:12;2.70;;;2.15;;
34639;SDS011;22600;48.186;11.526;2022-07-29T09:22:40;3.42;;;2.47;;
34639;SDS011;22600;48.186;11.526;2022-07-29T09:25:05;2.95;;;2.20;;
34639;SDS011;22600;48.186;11.526;2022-07-29T09:27:31;3.15;;;2.33;;
34639;SDS011;22600;48.186;11.526;2022-07-29T09:29:59;4.20;;;2.50;;
34639;SDS011;22600;48.186;11.526;2022-07-29T09:32:30;3.55;;;2.25;;
34639;SDS011;22600;48.186;11.526;2022-07-29T09:37:45;3.45;;;2.20;;
34639;SDS011;22600;48.186;11.526;2022-07-29T09:40:12;2.67;;;2.20;;
34639;SDS011;22600;48.186;11.526;2022-07-29T09:42:42;3.42;;;2.20;;
34639;SDS011;22600;48.186;11.526;2022-07-29T09:45:08;3.63;;;2.55;;
34639;SDS011;22600;48.186;11.526;2022-07-29T09:47:44;4.00;;;2.30;;
34639;SDS011;22600;48.186;11.526;2022-07-29T09:50:12;4.00;;;2.30;;
34639;SDS011;22600;48.186;11.526;2022-07-29T09:52:48;3.90;;;2.42;;
34639;SDS011;22600;48.186;11.526;2022-07-29T09:55:15;3.17;;;2.35;;
34639;SDS011;22600;48.186;11.526;2022-07-29T09:57:41;3.85;;;2.47;;
34639;SDS011;22600;48.186;11.526;2022-07-29T10:02:35;2.90;;;2.40;;
34639;SDS011;22600;48.186;11.526;2022-07-29T10:05:03;3.30;;;2.60;;
34639;SDS011;22600;48.186;11.526;2022-07-29T10:07:44;3.75;;;2.35;;
34639;SDS011;22600;48.186;11.526;2022-07-29T10:10:17;3.00;;;2.63;;
34639;SDS011;22600;48.186;11.526;2022-07-29T10:12:54;3.17;;;2.50;;
34639;SDS011;22600;48.186;11.526;2022-07-29T10:15:26;3.20;;;2.50;;
34639;SDS011;22600;48.186;11.526;2022-07-29T10:17:54;3.10;;;2.53;;
34639;SDS011;22600;48.186;11.526;2022-07-29T10:20:23;3.20;;;2.63;;
34639;SDS011;22600;48.186;11.526;2022-07-29T10:22:50;3.17;;;2.60;;
34639;SDS011;22600;48.186;11.526;2022-07-29T10:25:16;4.05;;;2.80;;
34639;SDS011;22600;48.186;11.526;2022-07-29T10:27:43;3.60;;;2.53;;
34639;SDS011;22600;48.186;11.526;2022-07-29T10:30:10;2.90;;;2.60;;
34639;SDS011;22600;48.186;11.526;2022-07-29T10:32:50;3.42;;;2.78;;
34639;SDS011;22600;48.186;11.526;2022-07-29T10:44:23;5.00;;;2.80;;
34639;SDS011;22600;48.186;11.526;2022-07-29T10:46:50;4.03;;;2.80;;
34639;SDS011;22600;48.186;11.526;2022-07-29T10:49:19;3.35;;;2.65;;
34639;SDS011;22600;48.186;11.526;2022-07-29T10:51:54;2.90;;;2.60;;
34639;SDS011;22600;48.186;11.526;2022-07-29T10:57:19;3.30;;;2.60;;
34639;SDS011;22600;48.186;11.526;2022-07-29T10:59:47;3.33;;;2.80;;
34639;SDS011;22600;48.186;11.526;2022-07-29T11:05:02;3.05;;;2.42;;
34639;SDS011;22600;48.186;11.526;2022-07-29T11:07:31;5.13;;;2.80;;
34639;SDS011;22600;48.186;11.526;2022-07-29T11:15:02;4.00;;;2.90;;
34639;SDS011;22600;48.186;11.526;2022-07-29T11:20:34;4.82;;;2.63;;
34639;SDS011;22600;48.186;11.526;2022-07-29T11:29:04;4.05;;;2.90;;
34639;SDS011;22600;48.186;11.526;2022-07-29T11:31:39;4.30;;;2.50;;
34639;SDS011;22600;48.186;11.526;2022-07-29T11:34:28;3.22;;;2.80;;
34639;SDS011;22600;48.186;11.526;2022-07-29T11:39:35;3.17;;;2.80;;
34639;SDS011;22600;48.186;11.526;2022-07-29T11:42:47;4.70;;;3.03;;
34639;SDS011;22600;48.186;11.526;2022-07-29T11:47:31;3.22;;;2.90;;
34639;SDS011;22600;48.186;11.526;2022-07-29T11:49:59;4.22;;;2.80;;
34639;SDS011;22600;48.186;11.526;2022-07-29T11:52:36;5.57;;;2.90;;
34639;SDS011;22600;48.186;11.526;2022-07-29T11:55:08;8.05;;;3.63;;
34639;SDS011;22600;48.186;11.526;2022-07-29T11:57:35;14.25;;;3.80;;
34639;SDS011;22600;48.186;11.526;2022-07-29T12:00:01;12.10;;;3.53;;
34639;SDS011;22600;48.186;11.526;2022-07-29T12:02:42;4.63;;;2.97;;
34639;SDS011;22600;48.186;11.526;2022-07-29T12:05:09;5.18;;;3.08;;
34639;SDS011;22600;48.186;11.526;2022-07-29T12:07:38;6.78;;;3.00;;
34639;SDS011;22600;48.186;11.526;2022-07-29T12:10:04;5.05;;;3.05;;
34639;SDS011;22600;48.186;11.526;2022-07-29T12:12:31;5.57;;;3.03;;
34639;SDS011;22600;48.186;11.526;2022-07-29T12:14:57;5.53;;;3.10;;
34639;SDS011;22600;48.186;11.526;2022-07-29T12:19:52;6.10;;;3.38;;
34639;SDS011;22600;48.186;11.526;2022-07-29T12:22:28;4.80;;;3.05;;
34639;SDS011;22600;48.186;11.526;2022-07-29T12:24:54;8.50;;;3.72;;
34639;SDS011;22600;48.186;11.526;2022-07-29T12:27:21;5.95;;;3.75;;
34639;SDS011;22600;48.186;11.526;2022-07-29T12:30:00;5.68;;;3.20;;
34639;SDS011;22600;48.186;11.526;2022-07-29T12:32:31;4.57;;;3.15;;
34639;SDS011;22600;48.186;11.526;2022-07-29T12:35:01;4.43;;;3.45;;
34639;SDS011;22600;48.186;11.526;2022-07-29T12:37:33;11.32;;;3.50;;
34639;SDS011;22600;48.186;11.526;2022-07-29T12:40:00;6.25;;;3.40;;
34639;SDS011;22600;48.186;11.526;2022-07-29T12:42:27;5.35;;;3.30;;
34639;SDS011;22600;48.186;11.526;2022-07-29T12:44:53;6.63;;;3.80;;
34639;SDS011;22600;48.186;11.526;2022-07-29T12:47:19;4.93;;;3.38;;
34639;SDS011;22600;48.186;11.526;2022-07-29T12:49:45;4.38;;;3.45;;
34639;SDS011;22600;48.186;11.526;2022-07-29T12:55:10;6.10;;;3.47;;
34639;SDS011;22600;48.186;11.526;2022-07-29T12:57:48;4.32;;;3.33;;
34639;SDS011;22600;48.186;11.526;2022-07-29T13:00:20;4.97;;;3.00;;
34639;SDS011;22600;48.186;11.526;2022-07-29T13:02:56;4.20;;;3.30;;
34639;SDS011;22600;48.186;11.526;2022-07-29T13:05:23;5.28;;;3.28;;
34639;SDS011;22600;48.186;11.526;2022-07-29T13:07:49;5.65;;;3.60;;
34639;SDS011;22600;48.186;11.526;2022-07-29T13:10:19;3.40;;;3.10;;
34639;SDS011;22600;48.186;11.526;2022-07-29T13:15:30;5.03;;;3.17;;
34639;SDS011;22600;48.186;11.526;2022-07-29T13:17:56;5.90;;;3.40;;
34639;SDS011;22600;48.186;11.526;2022-07-29T13:20:25;4.72;;;3.15;;
34639;SDS011;22600;48.186;11.526;2022-07-29T13:22:57;3.53;;;2.95;;
34639;SDS011;22600;48.186;11.526;2022-07-29T13:25:28;4.68;;;3.40;;
34639;SDS011;22600;48.186;11.526;2022-07-29T13:27:55;4.60;;;3.45;;
34639;SDS011;22600;48.186;11.526;2022-07-29T13:30:21;4.28;;;2.97;;
34639;SDS011;22600;48.186;11.526;2022-07-29T13:32:48;3.88;;;3.20;;
34639;SDS011;22600;48.186;11.526;2022-07-29T13:35:14;4.72;;;3.28;;
34639;SDS011;22600;48.186;11.526;2022-07-29T13:37:40;4.53;;;3.20;;
34639;SDS011;22600;48.186;11.526;2022-07-29T13:40:06;4.40;;;2.97;;
34639;SDS011;22600;48.186;11.526;2022-07-29T13:42:33;5.68;;;3.33;;
34639;SDS011;22600;48.186;11.526;2022-07-29T13:44:59;4.35;;;3.33;;
34639;SDS011;22600;48.186;11.526;2022-07-29T13:47:25;4.70;;;3.22;;
34639;SDS011;22600;48.186;11.526;2022-07-29T13:49:51;5.05;;;3.40;;
34639;SDS011;22600;48.186;11.526;2022-07-29T13:52:18;3.75;;;3.10;;
34639;SDS011;22600;48.186;11.526;2022-07-29T13:54:44;3.60;;;3.30;;
34639;SDS011;22600;48.186;11.526;2022-07-29T13:57:10;5.80;;;3.45;;
34639;SDS011;22600;48.186;11.526;2022-07-29T13:59:36;4.70;;;3.42;;
34639;SDS011;22600;48.186;11.526;2022-07-29T14:02:02;4.57;;;3.30;;
34639;SDS011;22600;48.186;11.526;2022-07-29T14:04:27;4.63;;;3.28;;
34639;SDS011;22600;48.186;11.526;2022-07-29T14:06:53;5.32;;;3.47;;
34639;SDS011;22600;48.186;11.526;2022-07-29T14:09:19;5.53;;;3.30;;
34639;SDS011;22600;48.186;11.526;2022-07-29T14:11:44;7.35;;;3.78;;
34639;SDS011;22600;48.186;11.526;2022-07-29T14:14:10;6.00;;;3.28;;
34639;SDS011;22600;48.186;11.526;2022-07-29T14:16:36;5.53;;;3.63;;
34639;SDS011;22600;48.186;11.526;2022-07-29T14:19:02;7.25;;;3.70;;
34639;SDS011;22600;48.186;11.526;2022-07-29T14:21:27;5.65;;;3.58;;
34639;SDS011;22600;48.186;11.526;2022-07-29T14:23:53;6.50;;;3.40;;
34639;SDS011;22600;48.186;11.526;2022-07-29T14:26:19;6.47;;;3.40;;
34639;SDS011;22600;48.186;11.526;2022-07-29T14:28:46;4.35;;;3.30;;
34639;SDS011;22600;48.186;11.526;2022-07-29T14:31:12;5.88;;;3.60;;
34639;SDS011;22600;48.186;11.526;2022-07-29T14:33:37;4.97;;;3.10;;
34639;SDS011;22600;48.186;11.526;2022-07-29T14:36:03;3.97;;;2.97;;
34639;SDS011;22600;48.186;11.526;2022-07-29T14:38:28;4.03;;;3.17;;
34639;SDS011;22600;48.186;11.526;2022-07-29T14:40:54;4.28;;;3.10;;
34639;SDS011;22600;48.186;11.526;2022-07-29T14:43:19;3.67;;;2.90;;
34639;SDS011;22600;48.186;11.526;2022-07-29T14:45:45;3.83;;;2.95;;
34639;SDS011;22600;48.186;11.526;2022-07-29T14:48:10;3.92;;;2.92;;
34639;SDS011;22600;48.186;11.526;2022-07-29T14:50:36;4.53;;;2.70;;
34639;SDS011;22600;48.186;11.526;2022-07-29T14:53:02;4.43;;;2.90;;
34639;SDS011;22600;48.186;11.526;2022-07-29T14:55:28;3.78;;;2.97;;
34639;SDS011;22600;48.186;11.526;2022-07-29T14:57:53;4.97;;;3.20;;
34639;SDS011;22600;48.186;11.526;2022-07-29T15:00:20;7.80;;;2.80;;
34639;SDS011;22600;48.186;11.526;2022-07-29T15:02:46;4.03;;;2.85;;
34639;SDS011;22600;48.186;11.526;2022-07-29T15:05:12;4.38;;;3.28;;
34639;SDS011;22600;48.186;11.526;2022-07-29T15:07:37;4.97;;;2.88;;
34639;SDS011;22600;48.186;11.526;2022-07-29T15:10:03;4.15;;;3.08;;
34639;SDS011;22600;48.186;11.526;2022-07-29T15:12:29;3.72;;;2.58;;
34639;SDS011;22600;48.186;11.526;2022-07-29T15:14:55;4.50;;;2.90;;
34639;SDS011;22600;48.186;11.526;2022-07-29T15:17:21;4.55;;;3.03;;
34639;SDS011;22600;48.186;11.526;2022-07-29T15:19:46;6.20;;;3.17;;
34639;SDS011;22600;48.186;11.526;2022-07-29T15:22:12;6.55;;;3.25;;
34639;SDS011;22600;48.186;11.526;2022-07-29T15:24:37;4.15;;;3.28;;
34639;SDS011;22600;48.186;11.526;2022-07-29T15:27:03;4.18;;;3.15;;
34639;SDS011;22600;48.186;11.526;2022-07-29T15:29:29;4.10;;;3.10;;
34639;SDS011;22600;48.186;11.526;2022-07-29T15:31:55;5.15;;;3.30;;
34639;SDS011;22600;48.186;11.526;2022-07-29T15:34:21;4.72;;;3.22;;